sensor_id;sensor_type;location;lat;lon;timestamp;pressure;altitude;pressure_sealevel;temperature;humidity
29909;BME280;36247;51.952;6.146;2023-07-13T00:01:16;101273.94;;;16.77;100.00
29909;BME280;36247;51.952;6.146;2023-07-13T00:03:42;101276.59;;;16.77;100.00
29909;BME280;36247;51.952;6.146;2023-07-13T00:06:08;101277.47;;;16.79;100.00
29909;BME280;36247;51.952;6.146;2023-07-13T00:08:34;101280.31;;;16.47;100.00
29909;BME280;36247;51.952;6.146;2023-07-13T00:11:04;101278.47;;;16.55;100.00
29909;BME280;36247;51.952;6.146;2023-07-13T00:13:33;101277.63;;;16.50;100.00
29909;BME280;36247;51.952;6.146;2023-07-13T00:15:59;101277.63;;;16.51;100.00
29909;BME280;36247;51.952;6.146;2023-07-13T00:18:26;101284.75;;;16.48;100.00
29909;BME280;36247;51.952;6.146;2023-07-13T00:20:58;101279.41;;;16.42;100.00
29909;BME280;36247;51.952;6.146;2023-07-13T00:23:34;101281.19;;;16.49;100.00
29909;BME280;36247;51.952;6.146;2023-07-13T00:26:04;101283.88;;;16.44;100.00
29909;BME280;36247;51.952;6.146;2023-07-13T00:28:32;101285.66;;;16.39;100.00
29909;BME280;36247;51.952;6.146;2023-07-13T00:31:02;101282.03;;;16.54;100.00
29909;BME280;36247;51.952;6.146;2023-07-13T00:33:35;101281.19;;;16.49;100.00
29909;BME280;36247;51.952;6.146;2023-07-13T00:36:04;101279.41;;;16.46;100.00
29909;BME280;36247;51.952;6.146;2023-07-13T00:38:30;101290.09;;;16.45;100.00
29909;BME280;36247;51.952;6.146;2023-07-13T00:40:57;101286.59;;;16.33;100.00
29909;BME280;36247;51.952;6.146;2023-07-13T00:43:49;101295.50;;;16.32;100.00
29909;BME280;36247;51.952;6.146;2023-07-13T00:46:25;101295.50;;;16.32;100.00
29909;BME280;36247;51.952;6.146;2023-07-13T00:48:53;101289.28;;;16.27;100.00
29909;BME280;36247;51.952;6.146;2023-07-13T00:51:28;101297.28;;;16.26;100.00
29909;BME280;36247;51.952;6.146;2023-07-13T00:54:00;101299.06;;;16.25;100.00
29909;BME280;36247;51.952;6.146;2023-07-13T00:56:38;101293.72;;;16.24;100.00
29909;BME280;36247;51.952;6.146;2023-07-13T00:59:12;101292.84;;;16.25;100.00
29909;BME280;36247;51.952;6.146;2023-07-13T01:01:45;101285.72;;;16.22;100.00
29909;BME280;36247;51.952;6.146;2023-07-13T01:04:12;101293.72;;;16.31;100.00
29909;BME280;36247;51.952;6.146;2023-07-13T01:06:42;101291.94;;;16.21;100.00
29909;BME280;36247;51.952;6.146;2023-07-13T01:09:14;101299.09;;;16.19;100.00
29909;BME280;36247;51.952;6.146;2023-07-13T01:11:55;101309.81;;;16.05;100.00
29909;BME280;36247;51.952;6.146;2023-07-13T01:14:28;101300.88;;;16.04;100.00
29909;BME280;36247;51.952;6.146;2023-07-13T01:17:00;101296.47;;;16.05;100.00
29909;BME280;36247;51.952;6.146;2023-07-13T01:26:47;101302.72;;;15.87;100.00
29909;BME280;36247;51.952;6.146;2023-07-13T01:29:20;101301.78;;;15.90;100.00
29909;BME280;36247;51.952;6.146;2023-07-13T01:31:49;101303.59;;;15.88;100.00
29909;BME280;36247;51.952;6.146;2023-07-13T01:34:16;101307.13;;;15.90;100.00
29909;BME280;36247;51.952;6.146;2023-07-13T01:36:42;101306.25;;;15.71;100.00
29909;BME280;36247;51.952;6.146;2023-07-13T01:39:08;101304.44;;;15.76;100.00
29909;BME280;36247;51.952;6.146;2023-07-13T01:41:34;101300.91;;;15.69;100.00
29909;BME280;36247;51.952;6.146;2023-07-13T01:44:01;101298.22;;;15.67;100.00
29909;BME280;36247;51.952;6.146;2023-07-13T01:46:26;101297.31;;;15.59;100.00
29909;BME280;36247;51.952;6.146;2023-07-13T01:48:53;101293.78;;;15.63;100.00
29909;BME280;36247;51.952;6.146;2023-07-13T01:51:25;101298.19;;;15.64;100.00
29909;BME280;36247;51.952;6.146;2023-07-13T01:54:00;101292.88;;;15.60;100.00
29909;BME280;36247;51.952;6.146;2023-07-13T01:56:26;101287.53;;;15.50;100.00
29909;BME280;36247;51.952;6.146;2023-07-13T01:58:52;101294.66;;;15.45;100.00
29909;BME280;36247;51.952;6.146;2023-07-13T02:01:18;101295.53;;;15.52;100.00
29909;BME280;36247;51.952;6.146;2023-07-13T02:03:44;101298.22;;;15.50;100.00
29909;BME280;36247;51.952;6.146;2023-07-13T02:06:12;101300.00;;;15.42;100.00
29909;BME280;36247;51.952;6.146;2023-07-13T02:08:38;101299.09;;;15.43;100.00
29909;BME280;36247;51.952;6.146;2023-07-13T02:11:04;101298.19;;;15.35;100.00
29909;BME280;36247;51.952;6.146;2023-07-13T02:13:30;101291.06;;;15.26;100.00
29909;BME280;36247;51.952;6.146;2023-07-13T02:15:56;101300.84;;;15.21;100.00
29909;BME280;36247;51.952;6.146;2023-07-13T02:18:24;101291.06;;;15.20;100.00
29909;BME280;36247;51.952;6.146;2023-07-13T02:20:50;101291.94;;;15.21;100.00
29909;BME280;36247;51.952;6.146;2023-07-13T02:23:19;101301.75;;;15.25;100.00
29909;BME280;36247;51.952;6.146;2023-07-13T02:25:46;101292.81;;;15.16;100.00
29909;BME280;36247;51.952;6.146;2023-07-13T02:28:14;101283.94;;;15.21;100.00
29909;BME280;36247;51.952;6.146;2023-07-13T02:30:49;101293.72;;;15.14;100.00
29909;BME280;36247;51.952;6.146;2023-07-13T02:33:18;101302.59;;;15.08;100.00
29909;BME280;36247;51.952;6.146;2023-07-13T02:35:44;101301.72;;;15.08;100.00
29909;BME280;36247;51.952;6.146;2023-07-13T02:38:13;101301.72;;;15.14;100.00
29909;BME280;36247;51.952;6.146;2023-07-13T02:40:42;101307.06;;;15.09;100.00
29909;BME280;36247;51.952;6.146;2023-07-13T02:43:08;101301.72;;;15.08;100.00
29909;BME280;36247;51.952;6.146;2023-07-13T02:45:35;101309.72;;;15.14;100.00
29909;BME280;36247;51.952;6.146;2023-07-13T02:48:02;101307.06;;;15.08;100.00
29909;BME280;36247;51.952;6.146;2023-07-13T02:50:32;101301.66;;;14.97;100.00
29909;BME280;36247;51.952;6.146;2023-07-13T02:53:00;101313.19;;;14.90;100.00
29909;BME280;36247;51.952;6.146;2023-07-13T02:55:27;101314.09;;;14.87;100.00
29909;BME280;36247;51.952;6.146;2023-07-13T02:57:58;101308.78;;;14.96;100.00
29909;BME280;36247;51.952;6.146;2023-07-13T03:00:24;101312.31;;;14.95;100.00
29909;BME280;36247;51.952;6.146;2023-07-13T03:02:50;101313.19;;;14.87;100.00
29909;BME280;36247;51.952;6.146;2023-07-13T03:05:17;101322.13;;;14.96;100.00
29909;BME280;36247;51.952;6.146;2023-07-13T03:07:47;101321.25;;;14.94;100.00
29909;BME280;36247;51.952;6.146;2023-07-13T03:10:14;101322.13;;;14.99;100.00
29909;BME280;36247;51.952;6.146;2023-07-13T03:12:47;101327.47;;;15.03;100.00
29909;BME280;36247;51.952;6.146;2023-07-13T03:15:21;101329.25;;;14.96;100.00
29909;BME280;36247;51.952;6.146;2023-07-13T03:17:49;101323.91;;;14.93;100.00
29909;BME280;36247;51.952;6.146;2023-07-13T03:20:15;101326.53;;;14.88;100.00
29909;BME280;36247;51.952;6.146;2023-07-13T03:22:42;101330.97;;;14.83;100.00
29909;BME280;36247;51.952;6.146;2023-07-13T03:25:09;101330.97;;;14.91;100.00
29909;BME280;36247;51.952;6.146;2023-07-13T03:27:39;101346.06;;;14.79;100.00
29909;BME280;36247;51.952;6.146;2023-07-13T03:30:07;101345.13;;;14.73;100.00
29909;BME280;36247;51.952;6.146;2023-07-13T03:32:50;101338.94;;;14.78;100.00
29909;BME280;36247;51.952;6.146;2023-07-13T03:35:16;101341.59;;;14.74;100.00
29909;BME280;36247;51.952;6.146;2023-07-13T03:37:43;101339.00;;;14.92;100.00
29909;BME280;36247;51.952;6.146;2023-07-13T03:40:17;101334.50;;;14.79;100.00
29909;BME280;36247;51.952;6.146;2023-07-13T03:42:45;101349.66;;;14.86;100.00
29909;BME280;36247;51.952;6.146;2023-07-13T03:45:17;101344.31;;;14.91;100.00
29909;BME280;36247;51.952;6.146;2023-07-13T03:47:43;101347.91;;;14.93;100.00
29909;BME280;36247;51.952;6.146;2023-07-13T03:50:13;101352.34;;;14.92;100.00
29909;BME280;36247;51.952;6.146;2023-07-13T03:52:50;101352.31;;;14.88;100.00
29909;BME280;36247;51.952;6.146;2023-07-13T04:02:04;101348.78;;;14.87;100.00
29909;BME280;36247;51.952;6.146;2023-07-13T04:05:52;101349.63;;;14.85;100.00
29909;BME280;36247;51.952;6.146;2023-07-13T04:08:18;101353.19;;;14.82;100.00
29909;BME280;36247;51.952;6.146;2023-07-13T04:10:48;101359.41;;;14.79;100.00
29909;BME280;36247;51.952;6.146;2023-07-13T04:13:16;101353.19;;;14.85;100.00
29909;BME280;36247;51.952;6.146;2023-07-13T04:15:42;101362.09;;;14.87;100.00
29909;BME280;36247;51.952;6.146;2023-07-13T04:18:08;101356.75;;;14.83;100.00
29909;BME280;36247;51.952;6.146;2023-07-13T04:20:34;101358.59;;;14.99;100.00
29909;BME280;36247;51.952;6.146;2023-07-13T04:23:00;101363.03;;;14.98;100.00
29909;BME280;36247;51.952;6.146;2023-07-13T04:25:29;101371.00;;;14.88;100.00
29909;BME280;36247;51.952;6.146;2023-07-13T04:27:56;101363.00;;;14.89;100.00
29909;BME280;36247;51.952;6.146;2023-07-13T04:30:22;101365.69;;;14.95;100.00
29909;BME280;36247;51.952;6.146;2023-07-13T04:32:51;101371.97;;;15.07;100.00
29909;BME280;36247;51.952;6.146;2023-07-13T04:35:21;101361.25;;;14.96;100.00
29909;BME280;36247;51.952;6.146;2023-07-13T04:37:49;101363.03;;;14.98;100.00
29909;BME280;36247;51.952;6.146;2023-07-13T04:40:17;101378.22;;;15.18;100.00
29909;BME280;36247;51.952;6.146;2023-07-13T04:42:46;101373.81;;;15.23;100.00
29909;BME280;36247;51.952;6.146;2023-07-13T04:45:14;101380.88;;;15.13;100.00
29909;BME280;36247;51.952;6.146;2023-07-13T04:47:44;101380.03;;;15.34;100.00
29909;BME280;36247;51.952;6.146;2023-07-13T04:50:13;101376.50;;;15.36;100.00
29909;BME280;36247;51.952;6.146;2023-07-13T04:52:46;101376.50;;;15.40;100.00
29909;BME280;36247;51.952;6.146;2023-07-13T04:55:13;101381.78;;;15.12;100.00
29909;BME280;36247;51.952;6.146;2023-07-13T04:57:39;101387.13;;;15.15;100.00
29909;BME280;36247;51.952;6.146;2023-07-13T05:00:08;101388.97;;;15.32;100.00
29909;BME280;36247;51.952;6.146;2023-07-13T05:02:34;101396.97;;;15.30;100.00
29909;BME280;36247;51.952;6.146;2023-07-13T05:05:25;101384.50;;;15.26;100.00
29909;BME280;36247;51.952;6.146;2023-07-13T05:07:57;101393.38;;;15.28;100.00
29909;BME280;36247;51.952;6.146;2023-07-13T05:10:24;101397.00;;;15.41;100.00
29909;BME280;36247;51.952;6.146;2023-07-13T05:12:50;101400.59;;;15.57;100.00
29909;BME280;36247;51.952;6.146;2023-07-13T05:15:17;101398.78;;;15.50;100.00
29909;BME280;36247;51.952;6.146;2023-07-13T05:17:48;101402.34;;;15.54;100.00
29909;BME280;36247;51.952;6.146;2023-07-13T05:20:14;101402.41;;;15.67;100.00
29909;BME280;36247;51.952;6.146;2023-07-13T05:22:44;101406.88;;;15.78;100.00
29909;BME280;36247;51.952;6.146;2023-07-13T05:25:12;101406.84;;;15.76;100.00
29909;BME280;36247;51.952;6.146;2023-07-13T05:27:43;101408.66;;;15.79;100.00
29909;BME280;36247;51.952;6.146;2023-07-13T05:30:14;101413.09;;;15.69;100.00
29909;BME280;36247;51.952;6.146;2023-07-13T05:32:44;101406.00;;;15.85;100.00
29909;BME280;36247;51.952;6.146;2023-07-13T05:42:15;101420.28;;;16.02;100.00
29909;BME280;36247;51.952;6.146;2023-07-13T05:44:49;101423.81;;;16.11;100.00
29909;BME280;36247;51.952;6.146;2023-07-13T05:47:17;101429.19;;;16.32;100.00
29909;BME280;36247;51.952;6.146;2023-07-13T05:49:46;101419.38;;;16.11;100.00
29909;BME280;36247;51.952;6.146;2023-07-13T05:52:24;101430.06;;;16.17;100.00
29909;BME280;36247;51.952;6.146;2023-07-13T05:55:30;101434.53;;;16.12;100.00
29909;BME280;36247;51.952;6.146;2023-07-13T05:58:03;101440.78;;;16.08;100.00
29909;BME280;36247;51.952;6.146;2023-07-13T06:00:32;101438.97;;;16.26;100.00
29909;BME280;36247;51.952;6.146;2023-07-13T06:02:59;101439.00;;;16.30;100.00
29909;BME280;36247;51.952;6.146;2023-07-13T06:05:29;101447.00;;;16.55;100.00
29909;BME280;36247;51.952;6.146;2023-07-13T06:07:55;101439.00;;;16.39;100.00
29909;BME280;36247;51.952;6.146;2023-07-13T06:10:25;101444.31;;;16.60;100.00
29909;BME280;36247;51.952;6.146;2023-07-13T06:12:51;101448.78;;;16.47;100.00
29909;BME280;36247;51.952;6.146;2023-07-13T06:15:17;101447.88;;;16.40;100.00
29909;BME280;36247;51.952;6.146;2023-07-13T06:17:53;101456.81;;;16.54;100.00
29909;BME280;36247;51.952;6.146;2023-07-13T06:20:22;101448.78;;;16.59;100.00
29909;BME280;36247;51.952;6.146;2023-07-13T06:22:48;101456.78;;;16.90;100.00
29909;BME280;36247;51.952;6.146;2023-07-13T06:25:20;101464.78;;;16.73;100.00
29909;BME280;36247;51.952;6.146;2023-07-13T06:27:49;101463.88;;;16.96;100.00
29909;BME280;36247;51.952;6.146;2023-07-13T06:30:18;101465.69;;;16.78;100.00
29909;BME280;36247;51.952;6.146;2023-07-13T06:36:23;101461.13;;;17.22;100.00
29909;BME280;36247;51.952;6.146;2023-07-13T06:38:49;101454.81;;;17.38;100.00
29909;BME280;36247;51.952;6.146;2023-07-13T06:41:15;101473.56;;;17.38;100.00
29909;BME280;36247;51.952;6.146;2023-07-13T06:43:41;101473.56;;;17.40;100.00
29909;BME280;36247;51.952;6.146;2023-07-13T06:46:08;101477.78;;;17.93;100.00
29909;BME280;36247;51.952;6.146;2023-07-13T06:48:45;101467.19;;;17.62;100.00
29909;BME280;36247;51.952;6.146;2023-07-13T06:51:15;101467.97;;;17.83;100.00
29909;BME280;36247;51.952;6.146;2023-07-13T06:53:44;101471.53;;;17.90;100.00
29909;BME280;36247;51.952;6.146;2023-07-13T06:56:14;101469.69;;;17.98;100.00
29909;BME280;36247;51.952;6.146;2023-07-13T06:59:05;101472.56;;;17.62;100.00
29909;BME280;36247;51.952;6.146;2023-07-13T07:01:31;101474.19;;;17.91;100.00
29909;BME280;36247;51.952;6.146;2023-07-13T07:04:05;101475.09;;;17.95;100.00
29909;BME280;36247;51.952;6.146;2023-07-13T07:06:32;101478.59;;;18.00;100.00
29909;BME280;36247;51.952;6.146;2023-07-13T07:08:59;101486.50;;;18.25;100.00
29909;BME280;36247;51.952;6.146;2023-07-13T07:11:28;101482.19;;;18.02;100.00
29909;BME280;36247;51.952;6.146;2023-07-13T07:13:55;101482.16;;;18.08;100.00
29909;BME280;36247;51.952;6.146;2023-07-13T07:16:21;101484.09;;;17.77;100.00
29909;BME280;36247;51.952;6.146;2023-07-13T07:18:48;101479.69;;;17.68;100.00
29909;BME280;36247;51.952;6.146;2023-07-13T07:21:17;101476.84;;;17.99;100.00
29909;BME280;36247;51.952;6.146;2023-07-13T07:23:43;101488.56;;;17.75;100.00
29909;BME280;36247;51.952;6.146;2023-07-13T07:26:12;101495.63;;;17.99;100.00
29909;BME280;36247;51.952;6.146;2023-07-13T07:28:38;101489.94;;;18.41;100.00
29909;BME280;36247;51.952;6.146;2023-07-13T07:31:04;101492.63;;;18.42;100.00
29909;BME280;36247;51.952;6.146;2023-07-13T07:33:30;101497.94;;;18.48;100.00
29909;BME280;36247;51.952;6.146;2023-07-13T07:35:56;101498.13;;;18.22;100.00
29909;BME280;36247;51.952;6.146;2023-07-13T07:38:29;101495.38;;;18.28;100.00
29909;BME280;36247;51.952;6.146;2023-07-13T07:40:58;101487.44;;;18.18;100.00
29909;BME280;36247;51.952;6.146;2023-07-13T07:43:26;101486.34;;;18.42;100.00
29909;BME280;36247;51.952;6.146;2023-07-13T07:45:51;101489.19;;;18.25;100.00
29909;BME280;36247;51.952;6.146;2023-07-13T07:48:17;101480.13;;;18.38;100.00
29909;BME280;36247;51.952;6.146;2023-07-13T07:50:43;101489.78;;;18.59;100.00
29909;BME280;36247;51.952;6.146;2023-07-13T07:53:12;101486.41;;;18.34;100.00
29909;BME280;36247;51.952;6.146;2023-07-13T07:55:38;101487.28;;;18.35;100.00
29909;BME280;36247;51.952;6.146;2023-07-13T07:58:05;101488.97;;;18.46;100.00
29909;BME280;36247;51.952;6.146;2023-07-13T08:00:31;101488.97;;;18.46;100.00
29909;BME280;36247;51.952;6.146;2023-07-13T08:02:58;101483.50;;;18.62;100.00
29909;BME280;36247;51.952;6.146;2023-07-13T08:05:25;101482.78;;;18.41;100.00
29909;BME280;36247;51.952;6.146;2023-07-13T08:07:51;101486.25;;;18.54;100.00
29909;BME280;36247;51.952;6.146;2023-07-13T08:10:21;101486.91;;;18.78;100.00
29909;BME280;36247;51.952;6.146;2023-07-13T08:12:47;101484.00;;;19.02;100.00
29909;BME280;36247;51.952;6.146;2023-07-13T08:15:15;101476.97;;;18.91;100.00
29909;BME280;36247;51.952;6.146;2023-07-13T08:17:42;101484.19;;;18.89;100.00
29909;BME280;36247;51.952;6.146;2023-07-13T08:20:08;101481.38;;;18.98;100.00
29909;BME280;36247;51.952;6.146;2023-07-13T08:22:35;101492.38;;;18.67;100.00
29909;BME280;36247;51.952;6.146;2023-07-13T08:25:02;101487.94;;;18.64;100.00
29909;BME280;36247;51.952;6.146;2023-07-13T08:27:29;101488.75;;;18.74;100.00
29909;BME280;36247;51.952;6.146;2023-07-13T08:29:55;101483.38;;;18.74;100.00
29909;BME280;36247;51.952;6.146;2023-07-13T08:32:25;101494.13;;;18.74;100.00
29909;BME280;36247;51.952;6.146;2023-07-13T08:34:54;101494.97;;;18.78;100.00
29909;BME280;36247;51.952;6.146;2023-07-13T08:37:22;101482.88;;;19.24;100.00
29909;BME280;36247;51.952;6.146;2023-07-13T08:39:55;101478.22;;;20.59;100.00
29909;BME280;36247;51.952;6.146;2023-07-13T08:42:33;101474.59;;;20.62;100.00
29909;BME280;36247;51.952;6.146;2023-07-13T08:47:55;101466.00;;;20.40;100.00
29909;BME280;36247;51.952;6.146;2023-07-13T08:50:31;101472.03;;;20.54;100.00
29909;BME280;36247;51.952;6.146;2023-07-13T08:53:02;101475.03;;;19.77;100.00
29909;BME280;36247;51.952;6.146;2023-07-13T08:55:42;101477.56;;;19.89;100.00
29909;BME280;36247;51.952;6.146;2023-07-13T08:58:31;101465.78;;;19.99;100.00
29909;BME280;36247;51.952;6.146;2023-07-13T09:03:57;101452.50;;;20.94;100.00
29909;BME280;36247;51.952;6.146;2023-07-13T09:06:46;101450.13;;;20.76;100.00
29909;BME280;36247;51.952;6.146;2023-07-13T09:09:32;101471.88;;;20.64;100.00
29909;BME280;36247;51.952;6.146;2023-07-13T09:12:29;101461.31;;;21.01;100.00
29909;BME280;36247;51.952;6.146;2023-07-13T09:15:24;101473.47;;;20.77;100.00
29909;BME280;36247;51.952;6.146;2023-07-13T09:18:03;101461.66;;;20.84;100.00
29909;BME280;36247;51.952;6.146;2023-07-13T09:20:46;101467.91;;;20.35;100.00
29909;BME280;36247;51.952;6.146;2023-07-13T09:23:20;101459.50;;;20.53;100.00
29909;BME280;36247;51.952;6.146;2023-07-13T09:25:53;101456.38;;;20.26;100.00
29909;BME280;36247;51.952;6.146;2023-07-13T09:28:43;101460.34;;;21.51;100.00
29909;BME280;36247;51.952;6.146;2023-07-13T09:31:35;101460.69;;;21.76;100.00
29909;BME280;36247;51.952;6.146;2023-07-13T09:34:13;101463.91;;;20.57;100.00
29909;BME280;36247;51.952;6.146;2023-07-13T09:36:39;101470.19;;;21.08;100.00
29909;BME280;36247;51.952;6.146;2023-07-13T09:42:25;101467.50;;;21.06;100.00
29909;BME280;36247;51.952;6.146;2023-07-13T09:44:56;101465.59;;;21.13;100.00
29909;BME280;36247;51.952;6.146;2023-07-13T09:47:26;101463.09;;;21.04;100.00
29909;BME280;36247;51.952;6.146;2023-07-13T09:50:15;101473.59;;;20.71;100.00
29909;BME280;36247;51.952;6.146;2023-07-13T09:52:49;101459.66;;;21.38;100.00
29909;BME280;36247;51.952;6.146;2023-07-13T09:55:29;101472.16;;;21.42;100.00
29909;BME280;36247;51.952;6.146;2023-07-13T09:58:24;101465.34;;;21.67;100.00
29909;BME280;36247;51.952;6.146;2023-07-13T10:01:15;101479.53;;;20.88;100.00
29909;BME280;36247;51.952;6.146;2023-07-13T10:03:54;101493.03;;;20.34;100.00
29909;BME280;36247;51.952;6.146;2023-07-13T10:06:22;101541.50;;;16.85;100.00
29909;BME280;36247;51.952;6.146;2023-07-13T10:08:49;101540.53;;;17.34;100.00
29909;BME280;36247;51.952;6.146;2023-07-13T10:13:58;101529.50;;;18.05;100.00
29909;BME280;36247;51.952;6.146;2023-07-13T10:16:30;101532.22;;;18.03;100.00
29909;BME280;36247;51.952;6.146;2023-07-13T10:19:03;101535.63;;;18.30;100.00
29909;BME280;36247;51.952;6.146;2023-07-13T10:21:35;101527.53;;;18.39;100.00
29909;BME280;36247;51.952;6.146;2023-07-13T10:24:10;101522.13;;;18.44;100.00
29909;BME280;36247;51.952;6.146;2023-07-13T10:26:39;101534.53;;;18.56;100.00
29909;BME280;36247;51.952;6.146;2023-07-13T10:29:12;101539.69;;;18.80;100.00
29909;BME280;36247;51.952;6.146;2023-07-13T10:31:45;101536.88;;;18.94;100.00
29909;BME280;36247;51.952;6.146;2023-07-13T10:34:14;101528.53;;;19.24;100.00
29909;BME280;36247;51.952;6.146;2023-07-13T10:36:47;101523.91;;;20.08;100.00
29909;BME280;36247;51.952;6.146;2023-07-13T10:39:20;101513.72;;;20.85;100.00
29909;BME280;36247;51.952;6.146;2023-07-13T10:41:55;101508.03;;;22.27;100.00
29909;BME280;36247;51.952;6.146;2023-07-13T10:44:27;101506.09;;;21.08;100.00
29909;BME280;36247;51.952;6.146;2023-07-13T10:47:01;101509.53;;;21.62;100.00
29909;BME280;36247;51.952;6.146;2023-07-13T10:49:34;101510.94;;;22.19;100.00
29909;BME280;36247;51.952;6.146;2023-07-13T10:52:02;101518.91;;;22.24;100.00
29909;BME280;36247;51.952;6.146;2023-07-13T10:59:38;101525.06;;;22.30;100.00
29909;BME280;36247;51.952;6.146;2023-07-13T11:04:45;101538.78;;;20.87;100.00
29909;BME280;36247;51.952;6.146;2023-07-13T11:07:22;101544.28;;;20.24;100.00
29909;BME280;36247;51.952;6.146;2023-07-13T11:09:51;101538.75;;;20.35;100.00
29909;BME280;36247;51.952;6.146;2023-07-13T11:17:48;101548.28;;;20.55;100.00
29909;BME280;36247;51.952;6.146;2023-07-13T11:25:39;101558.06;;;20.01;100.00
29909;BME280;36247;51.952;6.146;2023-07-13T11:28:22;101569.69;;;20.05;100.00
29909;BME280;36247;51.952;6.146;2023-07-13T11:33:51;101548.09;;;21.65;100.00
29909;BME280;36247;51.952;6.146;2023-07-13T11:36:20;101536.81;;;22.65;100.00
29909;BME280;36247;51.952;6.146;2023-07-13T11:39:24;101531.19;;;22.39;100.00
29909;BME280;36247;51.952;6.146;2023-07-13T11:41:59;101534.69;;;22.03;100.00
29909;BME280;36247;51.952;6.146;2023-07-13T11:44:28;101525.66;;;22.43;100.00
29909;BME280;36247;51.952;6.146;2023-07-13T11:46:56;101533.22;;;22.27;100.00
29909;BME280;36247;51.952;6.146;2023-07-13T11:49:24;101553.72;;;21.08;100.00
29909;BME280;36247;51.952;6.146;2023-07-13T11:51:51;101552.78;;;20.56;100.00
29909;BME280;36247;51.952;6.146;2023-07-13T11:54:27;101550.34;;;20.39;100.00
29909;BME280;36247;51.952;6.146;2023-07-13T11:56:54;101553.88;;;20.42;100.00
29909;BME280;36247;51.952;6.146;2023-07-13T11:59:20;101556.41;;;20.53;100.00
29909;BME280;36247;51.952;6.146;2023-07-13T12:01:50;101552.88;;;21.03;100.00
29909;BME280;36247;51.952;6.146;2023-07-13T12:04:26;101557.56;;;21.40;100.00
29909;BME280;36247;51.952;6.146;2023-07-13T12:07:18;101547.47;;;21.95;100.00
29909;BME280;36247;51.952;6.146;2023-07-13T12:09:44;101552.38;;;22.92;100.00
29909;BME280;36247;51.952;6.146;2023-07-13T12:12:17;101542.47;;;23.25;100.00
29909;BME280;36247;51.952;6.146;2023-07-13T12:14:43;101533.59;;;23.53;100.00
29909;BME280;36247;51.952;6.146;2023-07-13T12:17:19;101534.38;;;23.25;100.00
29909;BME280;36247;51.952;6.146;2023-07-13T12:19:48;101541.91;;;22.02;100.00
29909;BME280;36247;51.952;6.146;2023-07-13T12:22:16;101537.69;;;22.28;100.00
29909;BME280;36247;51.952;6.146;2023-07-13T12:24:52;101534.47;;;21.72;100.00
29909;BME280;36247;51.952;6.146;2023-07-13T12:27:26;101545.19;;;21.29;100.00
29909;BME280;36247;51.952;6.146;2023-07-13T12:30:02;101550.25;;;21.46;100.00
29909;BME280;36247;51.952;6.146;2023-07-13T12:32:28;101553.75;;;21.53;100.00
29909;BME280;36247;51.952;6.146;2023-07-13T12:35:13;101544.06;;;22.65;100.00
29909;BME280;36247;51.952;6.146;2023-07-13T12:37:45;101537.53;;;21.97;100.00
29909;BME280;36247;51.952;6.146;2023-07-13T12:40:24;101539.59;;;21.86;100.00
29909;BME280;36247;51.952;6.146;2023-07-13T12:42:54;101548.94;;;21.67;100.00
29909;BME280;36247;51.952;6.146;2023-07-13T12:45:26;101559.72;;;21.69;100.00
29909;BME280;36247;51.952;6.146;2023-07-13T12:47:58;101555.41;;;21.60;100.00
29909;BME280;36247;51.952;6.146;2023-07-13T12:50:39;101560.94;;;21.53;100.00
29909;BME280;36247;51.952;6.146;2023-07-13T12:53:23;101559.31;;;21.88;100.00
29909;BME280;36247;51.952;6.146;2023-07-13T12:55:53;101540.41;;;22.66;100.00
29909;BME280;36247;51.952;6.146;2023-07-13T12:58:38;101540.69;;;23.24;100.00
29909;BME280;36247;51.952;6.146;2023-07-13T13:01:04;101544.44;;;22.84;100.00
29909;BME280;36247;51.952;6.146;2023-07-13T13:03:40;101530.06;;;24.10;100.00
29909;BME280;36247;51.952;6.146;2023-07-13T13:08:51;101536.38;;;23.50;100.00
29909;BME280;36247;51.952;6.146;2023-07-13T13:11:22;101535.78;;;23.38;100.00
29909;BME280;36247;51.952;6.146;2023-07-13T13:13:49;101526.28;;;24.71;100.00
29909;BME280;36247;51.952;6.146;2023-07-13T13:16:37;101524.97;;;24.56;100.00
29909;BME280;36247;51.952;6.146;2023-07-13T13:19:15;101531.31;;;23.99;100.00
29909;BME280;36247;51.952;6.146;2023-07-13T13:21:44;101547.50;;;23.04;100.00
29909;BME280;36247;51.952;6.146;2023-07-13T13:24:24;101550.66;;;22.87;100.00
29909;BME280;36247;51.952;6.146;2023-07-13T13:26:51;101544.38;;;22.12;100.00
29909;BME280;36247;51.952;6.146;2023-07-13T13:29:22;101538.91;;;22.15;100.00
29909;BME280;36247;51.952;6.146;2023-07-13T13:31:50;101553.94;;;22.64;100.00
29909;BME280;36247;51.952;6.146;2023-07-13T13:34:21;101538.13;;;23.19;100.00
29909;BME280;36247;51.952;6.146;2023-07-13T13:36:54;101536.94;;;23.61;100.00
29909;BME280;36247;51.952;6.146;2023-07-13T13:39:24;101533.06;;;23.05;100.00
29909;BME280;36247;51.952;6.146;2023-07-13T13:41:54;101546.75;;;22.65;100.00
29909;BME280;36247;51.952;6.146;2023-07-13T13:44:21;101544.78;;;23.70;100.00
29909;BME280;36247;51.952;6.146;2023-07-13T13:46:49;101535.94;;;25.32;100.00
29909;BME280;36247;51.952;6.146;2023-07-13T13:49:19;101538.94;;;24.16;100.00
29909;BME280;36247;51.952;6.146;2023-07-13T13:51:46;101536.50;;;23.45;100.00
29909;BME280;36247;51.952;6.146;2023-07-13T13:54:17;101540.97;;;23.46;100.00
29909;BME280;36247;51.952;6.146;2023-07-13T13:56:46;101550.22;;;23.04;100.00
29909;BME280;36247;51.952;6.146;2023-07-13T13:59:13;101540.44;;;24.79;100.00
29909;BME280;36247;51.952;6.146;2023-07-13T14:01:45;101543.16;;;26.48;92.95